sensor_id;sensor_type;location;lat;lon;timestamp;pressure;altitude;pressure_sealevel;temperature;humidity
10145;BME280;5113;41.822;23.564;2024-01-06T00:01:24;-11102.06;;;6.07;74.02
10145;BME280;5113;41.822;23.564;2024-01-06T00:04:31;-11114.69;;;6.52;72.84
10145;BME280;5113;41.822;23.564;2024-01-06T00:07:40;-11113.56;;;6.48;73.51
10145;BME280;5113;41.822;23.564;2024-01-06T00:10:47;-11114.69;;;6.52;71.77
10145;BME280;5113;41.822;23.564;2024-01-06T00:13:53;-11122.28;;;6.80;72.30
10145;BME280;5113;41.822;23.564;2024-01-06T00:17:00;-11082.94;;;5.38;79.98
10145;BME280;5113;41.822;23.564;2024-01-06T00:20:07;-11091.25;;;5.68;76.20
10145;BME280;5113;41.822;23.564;2024-01-06T00:23:15;-11085.06;;;5.45;80.01
10145;BME280;5113;41.822;23.564;2024-01-06T00:26:22;-11088.84;;;5.59;76.72
10145;BME280;5113;41.822;23.564;2024-01-06T00:29:30;-11102.47;;;6.08;74.32
10145;BME280;5113;41.822;23.564;2024-01-06T00:32:36;-11085.19;;;5.46;76.31
10145;BME280;5113;41.822;23.564;2024-01-06T00:35:43;-11106.00;;;6.21;73.89
10145;BME280;5113;41.822;23.564;2024-01-06T00:38:51;-11115.81;;;6.56;72.35
10145;BME280;5113;41.822;23.564;2024-01-06T00:41:58;-11104.03;;;6.14;73.09
10145;BME280;5113;41.822;23.564;2024-01-06T00:45:06;-11110.06;;;6.36;72.97
10145;BME280;5113;41.822;23.564;2024-01-06T00:48:13;-11102.91;;;6.10;73.22
10145;BME280;5113;41.822;23.564;2024-01-06T00:51:20;-11107.13;;;6.25;74.20
10145;BME280;5113;41.822;23.564;2024-01-06T00:54:28;-11114.28;;;6.51;72.62
10145;BME280;5113;41.822;23.564;2024-01-06T00:57:35;-11100.38;;;6.01;75.22
10145;BME280;5113;41.822;23.564;2024-01-06T01:00:42;-11099.94;;;5.99;76.12
10145;BME280;5113;41.822;23.564;2024-01-06T01:03:49;-11109.06;;;6.32;73.86
10145;BME280;5113;41.822;23.564;2024-01-06T01:06:56;-11103.75;;;6.13;74.01
10145;BME280;5113;41.822;23.564;2024-01-06T01:10:04;-11115.53;;;6.55;73.51
10145;BME280;5113;41.822;23.564;2024-01-06T01:13:11;-11105.72;;;6.20;74.02
10145;BME280;5113;41.822;23.564;2024-01-06T01:16:18;-11093.91;;;5.77;75.95
10145;BME280;5113;41.822;23.564;2024-01-06T01:19:25;-11077.06;;;5.16;82.05
10145;BME280;5113;41.822;23.564;2024-01-06T01:22:32;-11097.84;;;5.91;76.52
10145;BME280;5113;41.822;23.564;2024-01-06T01:25:40;-11079.88;;;5.26;82.56
10145;BME280;5113;41.822;23.564;2024-01-06T01:28:46;-11100.66;;;6.02;75.64
10145;BME280;5113;41.822;23.564;2024-01-06T01:31:53;-11111.88;;;6.42;75.42
10145;BME280;5113;41.822;23.564;2024-01-06T01:35:00;-11100.38;;;6.01;74.90
10145;BME280;5113;41.822;23.564;2024-01-06T01:38:07;-11108.22;;;6.29;75.33
10145;BME280;5113;41.822;23.564;2024-01-06T01:41:15;-11127.06;;;6.97;72.16
10145;BME280;5113;41.822;23.564;2024-01-06T01:44:22;-11114.97;;;6.53;72.52
10145;BME280;5113;41.822;23.564;2024-01-06T01:47:28;-11128.88;;;7.04;71.24
10145;BME280;5113;41.822;23.564;2024-01-06T01:50:35;-11109.34;;;6.33;74.65
10145;BME280;5113;41.822;23.564;2024-01-06T01:53:42;-11120.59;;;6.74;72.81
10145;BME280;5113;41.822;23.564;2024-01-06T01:56:50;-11124.09;;;6.86;73.49
10145;BME280;5113;41.822;23.564;2024-01-06T01:59:57;-11110.47;;;6.37;74.85
10145;BME280;5113;41.822;23.564;2024-01-06T02:03:04;-11120.59;;;6.74;74.44
10145;BME280;5113;41.822;23.564;2024-01-06T02:06:12;-11121.44;;;6.77;73.38
10145;BME280;5113;41.822;23.564;2024-01-06T02:09:19;-11103.03;;;6.10;75.58
10145;BME280;5113;41.822;23.564;2024-01-06T02:12:29;-11121.44;;;6.77;74.41
10145;BME280;5113;41.822;23.564;2024-01-06T02:15:36;-11112.16;;;6.43;75.42
10145;BME280;5113;41.822;23.564;2024-01-06T02:18:44;-11120.59;;;6.74;73.38
10145;BME280;5113;41.822;23.564;2024-01-06T02:21:53;-11141.66;;;7.50;71.22
10145;BME280;5113;41.822;23.564;2024-01-06T02:25:01;-11129.72;;;7.07;71.08
10145;BME280;5113;41.822;23.564;2024-01-06T02:28:07;-11123.97;;;6.86;72.80
10145;BME280;5113;41.822;23.564;2024-01-06T02:31:13;-11137.59;;;7.35;71.13
10145;BME280;5113;41.822;23.564;2024-01-06T02:34:20;-11127.34;;;6.98;71.17
10145;BME280;5113;41.822;23.564;2024-01-06T02:37:28;-11119.31;;;6.69;73.49
10145;BME280;5113;41.822;23.564;2024-01-06T02:40:35;-11135.63;;;7.28;71.29
10145;BME280;5113;41.822;23.564;2024-01-06T02:43:42;-11116.38;;;6.58;71.98
10145;BME280;5113;41.822;23.564;2024-01-06T02:46:49;-11118.63;;;6.67;72.17
10145;BME280;5113;41.822;23.564;2024-01-06T02:49:55;-11119.19;;;6.69;73.31
10145;BME280;5113;41.822;23.564;2024-01-06T02:53:03;-11130.13;;;7.08;72.00
10145;BME280;5113;41.822;23.564;2024-01-06T02:56:10;-11123.25;;;6.83;73.88
10145;BME280;5113;41.822;23.564;2024-01-06T02:59:17;-11112.44;;;6.44;72.67
10145;BME280;5113;41.822;23.564;2024-01-06T03:02:24;-11088.28;;;5.57;79.58
10145;BME280;5113;41.822;23.564;2024-01-06T03:05:30;-11110.63;;;6.38;77.21
10145;BME280;5113;41.822;23.564;2024-01-06T03:08:39;-11103.88;;;6.13;77.51
10145;BME280;5113;41.822;23.564;2024-01-06T03:11:45;-11114.13;;;6.50;75.89
10145;BME280;5113;41.822;23.564;2024-01-06T03:14:52;-11122.00;;;6.79;73.94
10145;BME280;5113;41.822;23.564;2024-01-06T03:17:59;-11126.22;;;6.94;72.71
10145;BME280;5113;41.822;23.564;2024-01-06T03:21:05;-11095.03;;;5.81;78.56
10145;BME280;5113;41.822;23.564;2024-01-06T03:24:26;-11140.97;;;7.47;72.44
10145;BME280;5113;41.822;23.564;2024-01-06T03:27:33;-11123.69;;;6.85;74.52
10145;BME280;5113;41.822;23.564;2024-01-06T03:30:39;-11123.97;;;6.86;72.61
10145;BME280;5113;41.822;23.564;2024-01-06T03:33:46;-11144.63;;;7.60;70.47
10145;BME280;5113;41.822;23.564;2024-01-06T03:36:53;-11161.63;;;8.22;67.01
10145;BME280;5113;41.822;23.564;2024-01-06T03:40:01;-11138.16;;;7.37;70.43
10145;BME280;5113;41.822;23.564;2024-01-06T03:43:08;-11142.22;;;7.52;69.63
10145;BME280;5113;41.822;23.564;2024-01-06T03:46:14;-11134.06;;;7.22;70.14
10145;BME280;5113;41.822;23.564;2024-01-06T03:49:21;-11148.13;;;7.73;68.17
10145;BME280;5113;41.822;23.564;2024-01-06T03:52:27;-11130.13;;;7.08;68.66
10145;BME280;5113;41.822;23.564;2024-01-06T03:55:35;-11134.34;;;7.23;71.13
10145;BME280;5113;41.822;23.564;2024-01-06T03:58:42;-11126.63;;;6.95;70.94
10145;BME280;5113;41.822;23.564;2024-01-06T04:01:49;-11117.78;;;6.63;75.23
10145;BME280;5113;41.822;23.564;2024-01-06T04:04:55;-11145.59;;;7.64;70.43
10145;BME280;5113;41.822;23.564;2024-01-06T04:08:02;-11122.69;;;6.81;74.90
10145;BME280;5113;41.822;23.564;2024-01-06T04:11:10;-11147.84;;;7.72;71.01
10145;BME280;5113;41.822;23.564;2024-01-06T04:14:17;-11138.00;;;7.37;70.65
10145;BME280;5113;41.822;23.564;2024-01-06T04:17:24;-11141.94;;;7.51;70.22
10145;BME280;5113;41.822;23.564;2024-01-06T04:20:32;-11149.53;;;7.78;69.99
10145;BME280;5113;41.822;23.564;2024-01-06T04:23:39;-11144.06;;;7.58;70.83
10145;BME280;5113;41.822;23.564;2024-01-06T04:26:49;-11123.69;;;6.85;74.08
10145;BME280;5113;41.822;23.564;2024-01-06T04:29:55;-11140.41;;;7.45;72.29
10145;BME280;5113;41.822;23.564;2024-01-06T04:33:02;-11150.66;;;7.82;69.34
10145;BME280;5113;41.822;23.564;2024-01-06T04:36:09;-11127.63;;;6.99;70.92
10145;BME280;5113;41.822;23.564;2024-01-06T04:39:16;-11123.53;;;6.84;73.35
10145;BME280;5113;41.822;23.564;2024-01-06T04:42:24;-11131.13;;;7.12;73.20
10145;BME280;5113;41.822;23.564;2024-01-06T04:45:31;-11139.69;;;7.43;71.17
10145;BME280;5113;41.822;23.564;2024-01-06T04:48:40;-11133.78;;;7.21;73.28
10145;BME280;5113;41.822;23.564;2024-01-06T04:51:48;-11144.75;;;7.61;71.07
10145;BME280;5113;41.822;23.564;2024-01-06T04:54:55;-11128.19;;;7.01;73.78
10145;BME280;5113;41.822;23.564;2024-01-06T04:58:03;-11145.03;;;7.62;72.49
10145;BME280;5113;41.822;23.564;2024-01-06T05:01:10;-11146.56;;;7.68;70.01
10145;BME280;5113;41.822;23.564;2024-01-06T05:04:17;-11145.31;;;7.63;70.88
10145;BME280;5113;41.822;23.564;2024-01-06T05:07:24;-11137.44;;;7.35;72.22
10145;BME280;5113;41.822;23.564;2024-01-06T05:10:30;-11143.34;;;7.56;70.92
10145;BME280;5113;41.822;23.564;2024-01-06T05:13:38;-11156.13;;;8.02;69.29
10145;BME280;5113;41.822;23.564;2024-01-06T05:16:45;-11110.63;;;6.38;77.61
10145;BME280;5113;41.822;23.564;2024-01-06T05:19:51;-11141.09;;;7.48;73.42
10145;BME280;5113;41.822;23.564;2024-01-06T05:22:58;-11122.28;;;6.80;75.22
10145;BME280;5113;41.822;23.564;2024-01-06T05:26:05;-11124.38;;;6.87;76.79
10145;BME280;5113;41.822;23.564;2024-01-06T05:29:13;-11150.38;;;7.81;72.54
10145;BME280;5113;41.822;23.564;2024-01-06T05:32:19;-11109.63;;;6.34;78.34
10145;BME280;5113;41.822;23.564;2024-01-06T05:35:27;-11141.66;;;7.50;73.17
10145;BME280;5113;41.822;23.564;2024-01-06T05:38:33;-11150.66;;;7.82;70.42
10145;BME280;5113;41.822;23.564;2024-01-06T05:41:40;-11131.53;;;7.13;73.95
10145;BME280;5113;41.822;23.564;2024-01-06T05:44:48;-11141.66;;;7.50;72.82
10145;BME280;5113;41.822;23.564;2024-01-06T05:47:55;-11135.91;;;7.29;73.83
10145;BME280;5113;41.822;23.564;2024-01-06T05:51:04;-11129.31;;;7.05;74.94
10145;BME280;5113;41.822;23.564;2024-01-06T05:54:12;-11124.25;;;6.87;76.06
10145;BME280;5113;41.822;23.564;2024-01-06T05:57:19;-11131.25;;;7.12;74.67
10145;BME280;5113;41.822;23.564;2024-01-06T06:00:27;-11137.16;;;7.34;72.27
10145;BME280;5113;41.822;23.564;2024-01-06T06:03:36;-11143.91;;;7.58;72.58
10145;BME280;5113;41.822;23.564;2024-01-06T06:06:43;-11147.56;;;7.71;71.10
10145;BME280;5113;41.822;23.564;2024-01-06T06:09:50;-11147.00;;;7.69;71.94
10145;BME280;5113;41.822;23.564;2024-01-06T06:12:58;-11143.50;;;7.56;71.57
10145;BME280;5113;41.822;23.564;2024-01-06T06:16:06;-11144.06;;;7.58;72.69
10145;BME280;5113;41.822;23.564;2024-01-06T06:19:13;-11134.22;;;7.23;73.85
10145;BME280;5113;41.822;23.564;2024-01-06T06:22:20;-11096.16;;;5.85;80.30
10145;BME280;5113;41.822;23.564;2024-01-06T06:25:27;-11134.50;;;7.24;75.26
10145;BME280;5113;41.822;23.564;2024-01-06T06:28:34;-11128.19;;;7.01;74.46
10145;BME280;5113;41.822;23.564;2024-01-06T06:31:42;-11122.69;;;6.81;74.67
10145;BME280;5113;41.822;23.564;2024-01-06T06:34:50;-11143.91;;;7.58;73.07
10145;BME280;5113;41.822;23.564;2024-01-06T06:37:57;-11133.22;;;7.19;74.20
10145;BME280;5113;41.822;23.564;2024-01-06T06:41:03;-11141.94;;;7.51;72.62
10145;BME280;5113;41.822;23.564;2024-01-06T06:44:11;-11139.13;;;7.41;72.56
10145;BME280;5113;41.822;23.564;2024-01-06T06:47:19;-11113.16;;;6.47;76.92
10145;BME280;5113;41.822;23.564;2024-01-06T06:50:26;-11139.69;;;7.43;73.48
10145;BME280;5113;41.822;23.564;2024-01-06T06:53:32;-11137.59;;;7.35;71.46
10145;BME280;5113;41.822;23.564;2024-01-06T06:56:39;-11143.91;;;7.58;71.27
10145;BME280;5113;41.822;23.564;2024-01-06T06:59:46;-11139.00;;;7.40;72.11
10145;BME280;5113;41.822;23.564;2024-01-06T07:02:54;-11118.06;;;6.65;76.15
10145;BME280;5113;41.822;23.564;2024-01-06T07:06:01;-11139.13;;;7.41;72.47
10145;BME280;5113;41.822;23.564;2024-01-06T07:09:08;-11140.53;;;7.46;72.36
10145;BME280;5113;41.822;23.564;2024-01-06T07:12:15;-11138.84;;;7.40;71.01
10145;BME280;5113;41.822;23.564;2024-01-06T07:15:21;-11134.78;;;7.25;72.50
10145;BME280;5113;41.822;23.564;2024-01-06T07:18:29;-11150.66;;;7.82;71.39
10145;BME280;5113;41.822;23.564;2024-01-06T07:21:36;-11139.97;;;7.44;71.56
10145;BME280;5113;41.822;23.564;2024-01-06T07:24:43;-11150.22;;;7.81;71.44
10145;BME280;5113;41.822;23.564;2024-01-06T07:27:50;-11158.81;;;8.12;70.28
10145;BME280;5113;41.822;23.564;2024-01-06T07:31:00;-11142.22;;;7.52;69.31
10145;BME280;5113;41.822;23.564;2024-01-06T07:34:09;-11147.28;;;7.70;70.44
10145;BME280;5113;41.822;23.564;2024-01-06T07:37:16;-11161.47;;;8.21;68.29
10145;BME280;5113;41.822;23.564;2024-01-06T07:40:22;-11165.69;;;8.37;66.93
10145;BME280;5113;41.822;23.564;2024-01-06T07:43:30;-11167.66;;;8.44;67.00
10145;BME280;5113;41.822;23.564;2024-01-06T07:46:37;-11155.16;;;7.99;67.57
10145;BME280;5113;41.822;23.564;2024-01-06T07:49:46;-11161.06;;;8.20;68.12
10145;BME280;5113;41.822;23.564;2024-01-06T07:52:53;-11147.28;;;7.70;70.54
10145;BME280;5113;41.822;23.564;2024-01-06T07:56:00;-11173.16;;;8.64;67.19
10145;BME280;5113;41.822;23.564;2024-01-06T07:59:07;-11156.00;;;8.02;68.64
10145;BME280;5113;41.822;23.564;2024-01-06T08:02:14;-11168.94;;;8.48;67.08
10145;BME280;5113;41.822;23.564;2024-01-06T08:05:22;-11181.00;;;8.92;65.23
10145;BME280;5113;41.822;23.564;2024-01-06T08:08:28;-11179.59;;;8.87;65.90
10145;BME280;5113;41.822;23.564;2024-01-06T08:11:35;-11175.09;;;8.71;65.56
10145;BME280;5113;41.822;23.564;2024-01-06T08:14:41;-11160.34;;;8.17;66.07
10145;BME280;5113;41.822;23.564;2024-01-06T08:17:48;-11175.09;;;8.71;65.48
10145;BME280;5113;41.822;23.564;2024-01-06T08:20:56;-11154.88;;;7.98;67.36
10145;BME280;5113;41.822;23.564;2024-01-06T08:24:03;-11153.19;;;7.91;67.92
10145;BME280;5113;41.822;23.564;2024-01-06T08:27:10;-11166.81;;;8.41;66.88
10145;BME280;5113;41.822;23.564;2024-01-06T08:30:17;-11164.00;;;8.31;68.16
10145;BME280;5113;41.822;23.564;2024-01-06T08:33:24;-11176.78;;;8.77;67.21
10145;BME280;5113;41.822;23.564;2024-01-06T08:36:32;-11172.88;;;8.63;66.98
10145;BME280;5113;41.822;23.564;2024-01-06T08:39:39;-11168.09;;;8.45;68.46
10145;BME280;5113;41.822;23.564;2024-01-06T08:42:46;-11187.75;;;9.16;66.76
10145;BME280;5113;41.822;23.564;2024-01-06T08:45:53;-11151.50;;;7.85;70.34
10145;BME280;5113;41.822;23.564;2024-01-06T08:48:59;-11197.03;;;9.50;66.14
10145;BME280;5113;41.822;23.564;2024-01-06T08:52:08;-11193.53;;;9.37;67.29
10145;BME280;5113;41.822;23.564;2024-01-06T08:55:15;-11180.72;;;8.91;66.49
10145;BME280;5113;41.822;23.564;2024-01-06T08:58:22;-11206.88;;;9.85;65.06
10145;BME280;5113;41.822;23.564;2024-01-06T09:01:29;-11202.94;;;9.71;65.00
10145;BME280;5113;41.822;23.564;2024-01-06T09:04:36;-11191.97;;;9.32;65.42
10145;BME280;5113;41.822;23.564;2024-01-06T09:07:45;-11181.28;;;8.93;67.22
10145;BME280;5113;41.822;23.564;2024-01-06T09:10:59;-11218.69;;;10.28;62.92
10145;BME280;5113;41.822;23.564;2024-01-06T09:14:06;-11218.13;;;10.26;63.57
10145;BME280;5113;41.822;23.564;2024-01-06T09:17:12;-11190.00;;;9.24;66.01
10145;BME280;5113;41.822;23.564;2024-01-06T09:20:19;-11197.88;;;9.53;65.78
10145;BME280;5113;41.822;23.564;2024-01-06T09:23:29;-11197.59;;;9.52;66.87
10145;BME280;5113;41.822;23.564;2024-01-06T09:26:36;-11199.28;;;9.58;66.43
10145;BME280;5113;41.822;23.564;2024-01-06T09:29:43;-11202.09;;;9.68;65.31
10145;BME280;5113;41.822;23.564;2024-01-06T09:32:50;-11213.22;;;10.08;65.09
10145;BME280;5113;41.822;23.564;2024-01-06T09:35:56;-11202.38;;;9.69;65.40
10145;BME280;5113;41.822;23.564;2024-01-06T09:39:04;-11229.25;;;10.66;64.63
10145;BME280;5113;41.822;23.564;2024-01-06T09:42:13;-11214.19;;;10.12;65.11
10145;BME280;5113;41.822;23.564;2024-01-06T09:45:20;-11221.66;;;10.39;63.81
10145;BME280;5113;41.822;23.564;2024-01-06T09:48:29;-11245.16;;;11.23;63.06
10145;BME280;5113;41.822;23.564;2024-01-06T09:51:39;-11229.25;;;10.66;62.27
10145;BME280;5113;41.822;23.564;2024-01-06T09:54:51;-11245.16;;;11.23;60.83
10145;BME280;5113;41.822;23.564;2024-01-06T09:57:58;-11205.19;;;9.79;63.18
10145;BME280;5113;41.822;23.564;2024-01-06T10:01:08;-11236.16;;;10.91;60.60
10145;BME280;5113;41.822;23.564;2024-01-06T10:04:15;-11240.91;;;11.08;60.94
10145;BME280;5113;41.822;23.564;2024-01-06T10:07:28;-11250.34;;;11.42;60.75
10145;BME280;5113;41.822;23.564;2024-01-06T10:10:37;-11240.22;;;11.06;60.70
10145;BME280;5113;41.822;23.564;2024-01-06T10:13:44;-11253.03;;;11.52;60.66
10145;BME280;5113;41.822;23.564;2024-01-06T10:16:51;-11243.47;;;11.17;59.78
10145;BME280;5113;41.822;23.564;2024-01-06T10:19:58;-11249.37;;;11.39;59.83
10145;BME280;5113;41.822;23.564;2024-01-06T10:23:06;-11256.53;;;11.65;59.55
10145;BME280;5113;41.822;23.564;2024-01-06T10:26:14;-11259.50;;;11.75;59.36
10145;BME280;5113;41.822;23.564;2024-01-06T10:29:21;-11257.66;;;11.69;60.15
10145;BME280;5113;41.822;23.564;2024-01-06T10:32:31;-11247.41;;;11.32;59.99
10145;BME280;5113;41.822;23.564;2024-01-06T10:35:37;-11222.34;;;10.41;60.43
10145;BME280;5113;41.822;23.564;2024-01-06T10:38:45;-11276.25;;;12.36;57.63
10145;BME280;5113;41.822;23.564;2024-01-06T10:41:54;-11272.72;;;12.23;57.02
10145;BME280;5113;41.822;23.564;2024-01-06T10:45:01;-11299.91;;;13.21;56.40
10145;BME280;5113;41.822;23.564;2024-01-06T10:48:08;-11289.06;;;12.82;55.19
10145;BME280;5113;41.822;23.564;2024-01-06T10:51:15;-11302.84;;;13.32;56.25
10145;BME280;5113;41.822;23.564;2024-01-06T10:54:21;-11313.56;;;13.70;54.82
10145;BME280;5113;41.822;23.564;2024-01-06T10:57:31;-11292.16;;;12.93;56.12
10145;BME280;5113;41.822;23.564;2024-01-06T11:00:38;-11311.00;;;13.61;54.79
10145;BME280;5113;41.822;23.564;2024-01-06T11:03:45;-11310.44;;;13.59;55.85
10145;BME280;5113;41.822;23.564;2024-01-06T11:06:54;-11312.28;;;13.66;55.37
10145;BME280;5113;41.822;23.564;2024-01-06T11:10:05;-11339.75;;;14.65;53.86
10145;BME280;5113;41.822;23.564;2024-01-06T11:13:15;-11320.88;;;13.97;56.18
10145;BME280;5113;41.822;23.564;2024-01-06T11:16:34;-11307.06;;;13.47;57.85
10145;BME280;5113;41.822;23.564;2024-01-06T11:19:44;-11330.31;;;14.31;55.45
10145;BME280;5113;41.822;23.564;2024-01-06T11:22:53;-11356.66;;;15.26;53.51
10145;BME280;5113;41.822;23.564;2024-01-06T11:26:01;-11359.47;;;15.36;53.59
10145;BME280;5113;41.822;23.564;2024-01-06T11:29:09;-11331.28;;;14.34;54.88
10145;BME280;5113;41.822;23.564;2024-01-06T11:32:20;-11322.69;;;14.03;55.79
10145;BME280;5113;41.822;23.564;2024-01-06T11:35:32;-11324.09;;;14.08;56.37
10145;BME280;5113;41.822;23.564;2024-01-06T11:38:39;-11319.47;;;13.92;57.88
10145;BME280;5113;41.822;23.564;2024-01-06T11:41:48;-11366.09;;;15.60;55.24
10145;BME280;5113;41.822;23.564;2024-01-06T11:45:01;-11331.28;;;14.34;60.11
10145;BME280;5113;41.822;23.564;2024-01-06T11:48:11;-11313.84;;;13.71;60.14
10145;BME280;5113;41.822;23.564;2024-01-06T11:51:19;-11330.72;;;14.32;59.71
10145;BME280;5113;41.822;23.564;2024-01-06T11:54:25;-11362.28;;;15.46;57.14
10145;BME280;5113;41.822;23.564;2024-01-06T11:57:32;-11340.03;;;14.66;58.75
10145;BME280;5113;41.822;23.564;2024-01-06T12:00:40;-11359.87;;;15.37;58.04
10145;BME280;5113;41.822;23.564;2024-01-06T12:03:53;-11362.56;;;15.47;57.65
10145;BME280;5113;41.822;23.564;2024-01-06T12:07:06;-11340.16;;;14.66;60.25
10145;BME280;5113;41.822;23.564;2024-01-06T12:10:13;-11347.34;;;14.92;59.60
10145;BME280;5113;41.822;23.564;2024-01-06T12:13:21;-11322.97;;;14.04;61.80
10145;BME280;5113;41.822;23.564;2024-01-06T12:16:29;-11337.22;;;14.56;61.31
10145;BME280;5113;41.822;23.564;2024-01-06T12:19:37;-11334.09;;;14.44;61.18
10145;BME280;5113;41.822;23.564;2024-01-06T12:22:45;-11338.91;;;14.62;60.76
10145;BME280;5113;41.822;23.564;2024-01-06T12:25:51;-11307.63;;;13.49;62.96
10145;BME280;5113;41.822;23.564;2024-01-06T12:28:58;-11322.56;;;14.03;61.55
10145;BME280;5113;41.822;23.564;2024-01-06T12:32:07;-11323.41;;;14.06;62.40
10145;BME280;5113;41.822;23.564;2024-01-06T12:35:14;-11329.31;;;14.27;62.95
10145;BME280;5113;41.822;23.564;2024-01-06T12:38:21;-11347.06;;;14.91;60.96
10145;BME280;5113;41.822;23.564;2024-01-06T12:41:28;-11348.47;;;14.96;60.68
10145;BME280;5113;41.822;23.564;2024-01-06T12:44:35;-11357.63;;;15.29;61.20
10145;BME280;5113;41.822;23.564;2024-01-06T12:47:45;-11351.72;;;15.08;62.73
10145;BME280;5113;41.822;23.564;2024-01-06T12:50:52;-11385.66;;;16.30;58.95
10145;BME280;5113;41.822;23.564;2024-01-06T12:53:59;-11362.84;;;15.48;60.76
10145;BME280;5113;41.822;23.564;2024-01-06T12:57:05;-11374.69;;;15.91;60.38
10145;BME280;5113;41.822;23.564;2024-01-06T13:00:13;-11347.06;;;14.91;63.22
10145;BME280;5113;41.822;23.564;2024-01-06T13:03:21;-11345.09;;;14.84;64.42
10145;BME280;5113;41.822;23.564;2024-01-06T13:06:28;-11348.75;;;14.97;63.61
10145;BME280;5113;41.822;23.564;2024-01-06T13:09:36;-11381.59;;;16.15;59.98
10145;BME280;5113;41.822;23.564;2024-01-06T13:12:42;-11342.97;;;14.76;63.48
10145;BME280;5113;41.822;23.564;2024-01-06T13:15:49;-11342.00;;;14.73;65.36
10145;BME280;5113;41.822;23.564;2024-01-06T13:18:57;-11351.28;;;15.06;64.36
10145;BME280;5113;41.822;23.564;2024-01-06T13:22:04;-11345.66;;;14.86;65.25
10145;BME280;5113;41.822;23.564;2024-01-06T13:25:11;-11347.78;;;14.94;64.09
10145;BME280;5113;41.822;23.564;2024-01-06T13:28:18;-11317.78;;;13.85;67.60
10145;BME280;5113;41.822;23.564;2024-01-06T13:31:24;-11355.50;;;15.22;64.58
10145;BME280;5113;41.822;23.564;2024-01-06T13:34:33;-11348.47;;;14.96;64.88
10145;BME280;5113;41.822;23.564;2024-01-06T13:37:40;-11301.03;;;13.25;69.76
10145;BME280;5113;41.822;23.564;2024-01-06T13:40:48;-11306.78;;;13.46;72.83
10145;BME280;5113;41.822;23.564;2024-01-06T13:43:55;-11328.75;;;14.25;69.67
10145;BME280;5113;41.822;23.564;2024-01-06T13:47:02;-11336.66;;;14.53;67.50
10145;BME280;5113;41.822;23.564;2024-01-06T13:50:11;-11336.66;;;14.53;68.07
10145;BME280;5113;41.822;23.564;2024-01-06T13:53:17;-11337.50;;;14.57;67.59
10145;BME280;5113;41.822;23.564;2024-01-06T13:56:24;-11301.16;;;13.26;72.90
10145;BME280;5113;41.822;23.564;2024-01-06T13:59:31;-11318.34;;;13.87;70.78
10145;BME280;5113;41.822;23.564;2024-01-06T14:02:38;-11299.91;;;13.21;73.92
10145;BME280;5113;41.822;23.564;2024-01-06T14:05:46;-11322.41;;;14.02;72.24
10145;BME280;5113;41.822;23.564;2024-01-06T14:08:53;-11328.47;;;14.24;70.34
10145;BME280;5113;41.822;23.564;2024-01-06T14:11:59;-11328.19;;;14.23;68.60
10145;BME280;5113;41.822;23.564;2024-01-06T14:15:06;-11332.97;;;14.40;69.21
10145;BME280;5113;41.822;23.564;2024-01-06T14:18:13;-11324.38;;;14.09;70.42
10145;BME280;5113;41.822;23.564;2024-01-06T14:21:23;-11323.97;;;14.08;70.42
10145;BME280;5113;41.822;23.564;2024-01-06T14:24:30;-11327.06;;;14.19;69.91
10145;BME280;5113;41.822;23.564;2024-01-06T14:27:37;-11338.06;;;14.59;68.23
10145;BME280;5113;41.822;23.564;2024-01-06T14:30:43;-11330.16;;;14.30;68.85
10145;BME280;5113;41.822;23.564;2024-01-06T14:33:50;-11339.59;;;14.64;67.28
10145;BME280;5113;41.822;23.564;2024-01-06T14:36:59;-11334.94;;;14.47;67.92
10145;BME280;5113;41.822;23.564;2024-01-06T14:40:07;-11354.94;;;15.19;65.54
10145;BME280;5113;41.822;23.564;2024-01-06T14:43:14;-11327.34;;;14.20;68.54
10145;BME280;5113;41.822;23.564;2024-01-06T14:46:20;-11325.78;;;14.14;69.37
10145;BME280;5113;41.822;23.564;2024-01-06T14:49:27;-11361.00;;;15.41;64.03
10145;BME280;5113;41.822;23.564;2024-01-06T14:52:35;-11343.53;;;14.78;66.76
10145;BME280;5113;41.822;23.564;2024-01-06T14:55:41;-11343.41;;;14.78;65.19
10145;BME280;5113;41.822;23.564;2024-01-06T14:58:48;-11315.81;;;13.78;69.86
10145;BME280;5113;41.822;23.564;2024-01-06T15:01:55;-11327.91;;;14.22;68.62
10145;BME280;5113;41.822;23.564;2024-01-06T15:05:01;-11346.22;;;14.88;65.39
10145;BME280;5113;41.822;23.564;2024-01-06T15:08:11;-11320.31;;;13.95;70.86
10145;BME280;5113;41.822;23.564;2024-01-06T15:11:18;-11316.94;;;13.82;70.77
10145;BME280;5113;41.822;23.564;2024-01-06T15:14:24;-11303.41;;;13.34;74.57
10145;BME280;5113;41.822;23.564;2024-01-06T15:17:31;-11325.38;;;14.13;71.59
10145;BME280;5113;41.822;23.564;2024-01-06T15:20:38;-11320.59;;;13.96;71.28
10145;BME280;5113;41.822;23.564;2024-01-06T15:23:47;-11308.47;;;13.52;73.70
10145;BME280;5113;41.822;23.564;2024-01-06T15:26:53;-11315.81;;;13.78;73.20
10145;BME280;5113;41.822;23.564;2024-01-06T15:30:00;-11326.94;;;14.18;71.11
10145;BME280;5113;41.822;23.564;2024-01-06T15:33:12;-11300.03;;;13.21;73.41
10145;BME280;5113;41.822;23.564;2024-01-06T15:36:20;-11320.31;;;13.95;70.27
10145;BME280;5113;41.822;23.564;2024-01-06T15:39:29;-11340.88;;;14.69;67.14
10145;BME280;5113;41.822;23.564;2024-01-06T15:42:35;-11314.41;;;13.73;69.43
10145;BME280;5113;41.822;23.564;2024-01-06T15:45:42;-11292.44;;;12.94;75.08
10145;BME280;5113;41.822;23.564;2024-01-06T15:48:48;-11289.34;;;12.83;75.85
10145;BME280;5113;41.822;23.564;2024-01-06T15:51:55;-11318.75;;;13.89;70.50
10145;BME280;5113;41.822;23.564;2024-01-06T15:55:05;-11323.13;;;14.05;70.82
10145;BME280;5113;41.822;23.564;2024-01-06T15:58:12;-11319.47;;;13.92;69.66
10145;BME280;5113;41.822;23.564;2024-01-06T16:01:19;-11315.53;;;13.77;70.47
10145;BME280;5113;41.822;23.564;2024-01-06T16:04:27;-11297.22;;;13.11;74.98
10145;BME280;5113;41.822;23.564;2024-01-06T16:07:34;-11310.16;;;13.58;71.51
10145;BME280;5113;41.822;23.564;2024-01-06T16:10:42;-11311.84;;;13.64;73.35
10145;BME280;5113;41.822;23.564;2024-01-06T16:13:49;-11297.22;;;13.11;73.86
10145;BME280;5113;41.822;23.564;2024-01-06T16:16:55;-11317.06;;;13.83;73.29
10145;BME280;5113;41.822;23.564;2024-01-06T16:20:06;-11305.25;;;13.40;73.26
10145;BME280;5113;41.822;23.564;2024-01-06T16:23:13;-11303.28;;;13.33;72.81
10145;BME280;5113;41.822;23.564;2024-01-06T16:26:23;-11298.78;;;13.17;75.10